Time;durP1;ratioP1;P1;durP2;ratioP2;P2;SDS_P1;SDS_P2;PMS_P1;PMS_P2;Temp;Humidity;BMP_temperature;BMP_pressure;BME280_temperature;BME280_humidity;BME280_pressure;Samples;Min_cycle;Max_cycle;Signal;HPM_P1;HPM_P2
2021/01/10 00:00:37;;;;;;;55.33;29.35;;;-1.60;87.90;;;;;;5135169;27;20027;-77
2021/01/10 00:03:04;;;;;;;55.05;29.25;;;-1.60;87.90;;;;;;5136339;27;20499;-77
2021/01/10 00:05:30;;;;;;;52.08;27.45;;;-1.60;87.70;;;;;;5136279;27;20101;-77
2021/01/10 00:07:57;;;;;;;53.92;28.75;;;-1.60;87.80;;;;;;5134765;27;20023;-77
2021/01/10 00:10:24;;;;;;;53.67;27.02;;;-1.50;88.00;;;;;;5134902;27;20072;-77
2021/01/10 00:12:49;;;;;;;52.70;29.23;;;-1.60;87.70;;;;;;5136197;27;20027;-77
2021/01/10 00:15:17;;;;;;;57.65;31.30;;;-1.60;87.70;;;;;;5136058;27;20377;-77
2021/01/10 00:17:45;;;;;;;54.38;27.60;;;-1.60;88.30;;;;;;5136034;27;20443;-77
2021/01/10 00:20:12;;;;;;;52.67;27.17;;;-1.60;88.10;;;;;;5134807;27;20095;-77
2021/01/10 00:22:38;;;;;;;62.72;28.85;;;-1.60;88.00;;;;;;5136016;27;20027;-77
2021/01/10 00:25:09;;;;;;;58.88;29.70;;;-1.60;87.90;;;;;;5134538;27;20411;-77
2021/01/10 00:27:35;;;;;;;55.40;27.33;;;-1.60;88.00;;;;;;5136348;27;20030;-78
2021/01/10 00:30:03;;;;;;;45.30;25.80;;;-1.50;87.80;;;;;;5135787;27;20433;-77
2021/01/10 00:32:29;;;;;;;55.08;29.70;;;-1.50;87.60;;;;;;5134778;27;20047;-77
2021/01/10 00:34:54;;;;;;;52.63;27.98;;;-1.50;87.60;;;;;;5135694;27;20491;-77
2021/01/10 00:37:21;;;;;;;49.08;27.15;;;-1.50;87.80;;;;;;5135696;27;20045;-77
2021/01/10 00:39:50;;;;;;;51.47;26.58;;;-1.50;87.60;;;;;;5135670;27;20472;-77
2021/01/10 00:42:17;;;;;;;50.08;26.63;;;-1.40;87.50;;;;;;5134477;27;20130;-77
2021/01/10 00:44:47;;;;;;;46.67;25.05;;;-1.40;87.60;;;;;;5136000;27;20372;-77
2021/01/10 00:47:16;;;;;;;53.92;26.85;;;-1.50;87.50;;;;;;5134038;27;20515;-77
2021/01/10 00:49:42;;;;;;;52.17;26.67;;;-1.50;87.70;;;;;;5134281;27;20110;-77
2021/01/10 00:52:08;;;;;;;52.85;28.63;;;-1.50;87.50;;;;;;5135304;27;20499;-77
2021/01/10 00:54:34;;;;;;;47.85;25.38;;;-1.50;87.60;;;;;;5134152;27;20034;-77
2021/01/10 00:56:59;;;;;;;49.67;25.75;;;-1.40;87.70;;;;;;5135321;27;20050;-77
2021/01/10 00:59:25;;;;;;;49.97;27.50;;;-1.40;87.70;;;;;;5135640;27;20026;-78
2021/01/10 01:01:52;;;;;;;47.55;26.35;;;-1.40;88.00;;;;;;5135302;27;20520;-77
2021/01/10 01:04:18;;;;;;;47.90;25.65;;;-1.40;87.60;;;;;;5168744;27;20023;-77
2021/01/10 01:06:44;;;;;;;45.58;25.05;;;-1.40;87.60;;;;;;5135602;27;20094;-77
2021/01/10 01:09:09;;;;;;;42.78;24.25;;;-1.40;87.50;;;;;;5135105;27;20479;-78
2021/01/10 01:11:37;;;;;;;51.83;27.05;;;-1.40;87.60;;;;;;5168254;27;20034;-77
2021/01/10 01:14:04;;;;;;;56.55;26.38;;;-1.40;87.70;;;;;;5135122;27;20027;-77
2021/01/10 01:16:30;;;;;;;54.72;27.35;;;-1.40;87.70;;;;;;5134971;27;20023;-77
2021/01/10 01:18:56;;;;;;;55.03;27.00;;;-1.40;87.70;;;;;;5135120;27;20357;-77
2021/01/10 01:21:22;;;;;;;62.35;29.15;;;-1.40;87.80;;;;;;5135020;27;20019;-77
2021/01/10 01:23:49;;;;;;;61.35;30.95;;;-1.40;88.00;;;;;;5133712;27;20030;-77
2021/01/10 01:26:20;;;;;;;63.58;29.50;;;-1.40;88.00;;;;;;5134917;27;20024;-78
2021/01/10 01:28:46;;;;;;;63.10;31.05;;;-1.40;87.90;;;;;;5134879;27;20479;-78
2021/01/10 01:31:12;;;;;;;75.13;35.40;;;-1.40;87.90;;;;;;5134920;27;20038;-78
2021/01/10 01:33:39;;;;;;;65.90;32.35;;;-1.40;88.20;;;;;;5134784;27;20026;-78
2021/01/10 01:36:13;;;;;;;65.65;30.75;;;-1.40;88.00;;;;;;5133643;28;20026;-77
2021/01/10 01:39:01;;;;;;;75.53;34.65;;;-1.40;88.00;;;;;;5133812;28;20495;-77
2021/01/10 01:41:28;;;;;;;74.18;34.67;;;-1.40;87.90;;;;;;5134971;27;20065;-78
2021/01/10 01:43:54;;;;;;;61.97;30.10;;;-1.40;87.80;;;;;;5118865;28;20020;-78
2021/01/10 01:46:35;;;;;;;55.00;30.02;;;-1.40;87.70;;;;;;5112921;28;20180;-78
2021/01/10 01:49:08;;;;;;;52.35;27.13;;;-1.40;87.60;;;;;;5114175;28;20119;-78
2021/01/10 01:51:35;;;;;;;48.88;26.92;;;-1.40;87.60;;;;;;5113157;28;20038;-78
2021/01/10 01:54:03;;;;;;;53.20;28.02;;;-1.40;87.50;;;;;;5114049;28;20052;-78
2021/01/10 01:56:28;;;;;;;46.72;26.70;;;-1.40;87.50;;;;;;5113671;28;20066;-78
2021/01/10 01:59:05;;;;;;;50.92;27.33;;;-1.30;87.60;;;;;;5114051;28;20061;-78
2021/01/10 02:01:33;;;;;;;52.58;28.58;;;-1.40;87.60;;;;;;5113910;28;20036;-78
2021/01/10 02:04:27;;;;;;;48.40;26.30;;;-1.30;87.60;;;;;;5113991;28;20027;-78
2021/01/10 02:06:59;;;;;;;53.63;27.52;;;-1.30;87.60;;;;;;5112680;28;20437;-78
2021/01/10 02:09:26;;;;;;;51.58;27.60;;;-1.30;87.60;;;;;;5112677;28;20046;-78
2021/01/10 02:11:54;;;;;;;47.90;26.40;;;-1.30;87.70;;;;;;5114246;28;20031;-78
2021/01/10 02:14:23;;;;;;;50.35;27.88;;;-1.30;87.70;;;;;;5113885;28;20030;-78
2021/01/10 02:16:49;;;;;;;50.53;27.13;;;-1.30;87.70;;;;;;5113913;28;20061;-78
2021/01/10 02:19:22;;;;;;;51.67;27.70;;;-1.30;87.70;;;;;;5114169;28;20118;-78
2021/01/10 02:21:51;;;;;;;48.28;25.88;;;-1.20;87.90;;;;;;5114009;28;20376;-77
2021/01/10 02:24:19;;;;;;;43.67;24.25;;;-1.20;87.90;;;;;;5115871;28;20022;-78
2021/01/10 02:26:45;;;;;;;49.78;26.35;;;-1.20;87.60;;;;;;5116576;28;20035;-78
2021/01/10 02:29:11;;;;;;;53.03;28.00;;;-1.20;87.70;;;;;;5118273;28;20133;-78
2021/01/10 02:31:39;;;;;;;49.85;26.60;;;-1.20;87.60;;;;;;5118173;28;20346;-78
2021/01/10 02:34:07;;;;;;;51.90;27.30;;;-1.10;87.60;;;;;;5117737;28;20077;-78
2021/01/10 02:36:48;;;;;;;53.75;27.40;;;-1.20;87.50;;;;;;5116159;28;20051;-78
2021/01/10 02:39:20;;;;;;;52.13;27.15;;;-1.20;87.60;;;;;;5117410;28;20024;-78
2021/01/10 02:41:49;;;;;;;46.88;24.85;;;-1.20;87.50;;;;;;5116499;28;20026;-78
2021/01/10 02:44:21;;;;;;;54.87;28.17;;;-1.20;87.50;;;;;;5116209;28;20020;-80
2021/01/10 02:46:56;;;;;;;45.85;24.25;;;-1.20;87.60;;;;;;5117552;28;20740;-78
2021/01/10 02:49:22;;;;;;;44.63;24.88;;;-1.20;87.70;;;;;;5116041;28;20023;-78
2021/01/10 02:51:52;;;;;;;52.88;26.48;;;-1.20;87.60;;;;;;5116987;28;20035;-78
2021/01/10 02:54:19;;;;;;;52.67;27.02;;;-1.20;87.60;;;;;;5116869;28;20028;-78
2021/01/10 02:56:50;;;;;;;53.05;26.75;;;-1.20;87.60;;;;;;5117155;28;20070;-78
2021/01/10 02:59:19;;;;;;;49.20;25.70;;;-1.20;87.70;;;;;;5117050;27;20015;-78
2021/01/10 03:01:47;;;;;;;50.60;27.50;;;-1.20;87.70;;;;;;5117307;28;20522;-78
2021/01/10 03:04:15;;;;;;;51.88;25.83;;;-1.20;87.70;;;;;;5115888;28;20484;-78
2021/01/10 03:06:42;;;;;;;46.70;25.88;;;-1.20;87.50;;;;;;5116923;28;20019;-78
2021/01/10 03:09:09;;;;;;;53.05;27.85;;;-1.20;88.10;;;;;;5117111;28;20020;-78
2021/01/10 03:11:35;;;;;;;54.08;27.23;;;-1.20;87.50;;;;;;5116937;28;20103;-78
2021/01/10 03:14:02;;;;;;;58.47;29.60;;;-1.20;87.50;;;;;;5115728;28;20023;-78
2021/01/10 03:16:28;;;;;;;57.17;28.92;;;-1.30;87.50;;;;;;5115450;28;20016;-78
2021/01/10 03:18:54;;;;;;;51.80;26.77;;;-1.20;87.50;;;;;;5116368;28;20027;-78
2021/01/10 03:21:20;;;;;;;48.55;26.08;;;-1.20;87.50;;;;;;5115462;28;20028;-78
2021/01/10 03:23:45;;;;;;;49.92;26.58;;;-1.30;87.60;;;;;;5115476;28;20020;-78
2021/01/10 03:26:11;;;;;;;49.42;27.67;;;-1.30;87.70;;;;;;5116730;28;20487;-78
2021/01/10 03:28:37;;;;;;;51.45;26.65;;;-1.30;87.70;;;;;;5116409;28;20103;-78
2021/01/10 03:31:03;;;;;;;53.03;25.10;;;-1.30;87.70;;;;;;5116610;28;20077;-77
2021/01/10 03:33:29;;;;;;;46.80;24.85;;;-1.30;87.70;;;;;;5116887;28;20465;-77
2021/01/10 03:35:54;;;;;;;57.33;28.92;;;-1.30;87.70;;;;;;5116388;28;20026;-77
2021/01/10 03:38:20;;;;;;;49.65;26.33;;;-1.30;87.80;;;;;;5116526;28;20032;-77
2021/01/10 03:40:46;;;;;;;52.10;27.42;;;-1.30;87.90;;;;;;5116229;28;20094;-78
2021/01/10 03:43:11;;;;;;;52.60;28.63;;;-1.30;87.90;;;;;;5116403;28;20526;-78
2021/01/10 03:45:37;;;;;;;49.63;25.65;;;-1.30;87.90;;;;;;5116107;28;20024;-78
2021/01/10 03:48:03;;;;;;;50.28;26.65;;;-1.40;88.00;;;;;;5114740;28;20047;-77
2021/01/10 03:50:29;;;;;;;47.30;25.45;;;-1.40;87.90;;;;;;5116047;28;20019;-78
2021/01/10 03:52:55;;;;;;;52.50;26.75;;;-1.40;87.90;;;;;;5114685;28;20035;-78
2021/01/10 03:55:20;;;;;;;50.92;26.42;;;-1.40;88.20;;;;;;5116241;28;20055;-78
2021/01/10 03:57:46;;;;;;;47.15;25.02;;;-1.40;88.00;;;;;;5115653;28;20528;-78
2021/01/10 04:00:12;;;;;;;52.20;27.17;;;-1.30;88.10;;;;;;5115678;28;20401;-78
2021/01/10 04:02:38;;;;;;;46.03;23.98;;;-1.30;88.10;;;;;;5115996;28;20031;-78
2021/01/10 04:05:05;;;;;;;52.35;28.55;;;-1.30;88.20;;;;;;5115768;28;20016;-78
2021/01/10 04:07:31;;;;;;;51.30;27.77;;;-1.20;88.10;;;;;;5115909;28;20457;-78
2021/01/10 04:09:57;;;;;;;57.05;29.65;;;-1.20;88.10;;;;;;5115669;28;20028;-78
2021/01/10 04:12:23;;;;;;;50.67;27.75;;;-1.20;87.90;;;;;;5116021;28;20020;-78
2021/01/10 04:14:48;;;;;;;57.13;29.55;;;-1.20;87.90;;;;;;5114451;28;20030;-78
2021/01/10 04:17:14;;;;;;;55.03;28.90;;;-1.20;87.90;;;;;;5115353;28;20077;-78
2021/01/10 04:19:40;;;;;;;51.30;26.63;;;-1.20;87.90;;;;;;5115913;28;20042;-78
2021/01/10 04:22:05;;;;;;;51.85;26.65;;;-1.20;87.80;;;;;;5114187;28;20380;-78
2021/01/10 04:24:31;;;;;;;53.10;28.70;;;-1.20;87.90;;;;;;5115528;28;20016;-78
2021/01/10 04:26:57;;;;;;;58.60;29.00;;;-1.20;87.90;;;;;;5115748;28;20023;-78
2021/01/10 04:29:23;;;;;;;54.20;28.10;;;-1.20;87.90;;;;;;5115375;28;20027;-78
2021/01/10 04:31:50;;;;;;;52.97;27.20;;;-1.20;88.00;;;;;;5115939;27;20023;-78
2021/01/10 04:34:17;;;;;;;51.55;26.30;;;-1.30;87.90;;;;;;5115655;28;20073;-78
2021/01/10 04:36:42;;;;;;;76.38;40.28;;;-1.30;87.90;;;;;;5115020;28;20027;-78
2021/01/10 04:39:08;;;;;;;103.88;54.42;;;-1.30;88.00;;;;;;5115184;28;20024;-78
2021/01/10 04:41:34;;;;;;;68.43;34.22;;;-1.30;88.00;;;;;;5115450;28;20028;-78
2021/01/10 04:44:01;;;;;;;59.78;30.63;;;-1.20;88.00;;;;;;5114181;28;20042;-78
2021/01/10 04:46:30;;;;;;;60.42;30.35;;;-1.20;88.00;;;;;;5113099;28;20019;-78
2021/01/10 04:48:56;;;;;;;69.63;34.17;;;-1.20;87.90;;;;;;5114772;28;20126;-77
2021/01/10 04:51:25;;;;;;;59.30;31.42;;;-1.20;87.90;;;;;;5113944;28;20026;-77
2021/01/10 04:53:53;;;;;;;64.65;33.35;;;-1.10;87.90;;;;;;5114814;28;20016;-78
2021/01/10 04:56:20;;;;;;;68.82;33.80;;;-1.10;87.90;;;;;;5114924;28;20026;-77
2021/01/10 04:58:52;;;;;;;108.93;42.95;;;-1.10;88.20;;;;;;5113416;28;20358;-78
2021/01/10 05:01:24;;;;;;;103.75;40.92;;;-1.10;88.00;;;;;;5114858;28;20018;-77
2021/01/10 05:03:55;;;;;;;84.00;37.22;;;-1.00;88.10;;;;;;5115047;28;20030;-78
2021/01/10 05:06:22;;;;;;;80.03;36.30;;;-1.00;88.00;;;;;;5114773;28;20102;-78
2021/01/10 05:08:48;;;;;;;68.45;33.58;;;-1.00;88.00;;;;;;5114681;28;20027;-77
2021/01/10 05:11:17;;;;;;;69.13;32.78;;;-1.00;87.90;;;;;;5114634;28;20094;-78
2021/01/10 05:13:44;;;;;;;63.70;32.83;;;-0.90;88.00;;;;;;5113365;28;20036;-78
2021/01/10 05:16:16;;;;;;;59.28;31.02;;;-0.90;87.90;;;;;;5114608;28;20023;-78
2021/01/10 05:18:55;;;;;;;54.38;28.65;;;-0.90;87.90;;;;;;5114511;28;20080;-78
2021/01/10 05:21:25;;;;;;;56.08;29.45;;;-0.90;87.90;;;;;;5114784;28;20103;-77
2021/01/10 05:23:55;;;;;;;64.70;32.77;;;-0.90;87.90;;;;;;5114558;28;20023;-78
2021/01/10 05:26:22;;;;;;;57.25;30.88;;;-0.80;88.00;;;;;;5114381;28;20256;-78
2021/01/10 05:28:51;;;;;;;58.53;30.73;;;-0.80;88.00;;;;;;5114360;28;20055;-78
2021/01/10 05:31:41;;;;;;;62.35;31.98;;;-0.80;88.00;;;;;;5112976;28;20028;-78
2021/01/10 05:34:14;;;;;;;60.90;31.15;;;-0.80;88.00;;;;;;5113010;28;20114;-78
2021/01/10 05:36:41;;;;;;;61.60;30.83;;;-0.80;88.00;;;;;;5114423;28;20031;-78
2021/01/10 05:39:15;;;;;;;59.65;30.27;;;-0.80;88.10;;;;;;5114292;28;20123;-78
2021/01/10 05:41:48;;;;;;;60.70;29.23;;;-0.70;88.10;;;;;;5114135;28;20372;-77
2021/01/10 05:44:14;;;;;;;57.00;29.48;;;-0.70;88.10;;;;;;5125664;28;20019;-77
2021/01/10 05:46:40;;;;;;;64.00;32.33;;;-0.70;88.10;;;;;;5134754;28;20083;-77
2021/01/10 05:49:20;;;;;;;55.35;30.13;;;-0.70;88.10;;;;;;5133319;28;20039;-77
2021/01/10 05:51:46;;;;;;;60.33;32.08;;;-0.70;88.10;;;;;;5133500;28;20023;-78
2021/01/10 05:54:53;;;;;;;56.28;28.92;;;-0.70;88.10;;;;;;5133382;28;20038;-77
2021/01/10 05:57:26;;;;;;;55.72;30.35;;;-0.70;88.20;;;;;;5134316;27;20537;-78
2021/01/10 05:59:53;;;;;;;61.33;31.58;;;-0.60;88.10;;;;;;5136238;27;20069;-77
2021/01/10 06:02:36;;;;;;;62.65;32.72;;;-0.60;88.10;;;;;;5137735;27;20023;-77
2021/01/10 06:05:18;;;;;;;58.15;31.30;;;-0.60;88.10;;;;;;5138731;27;20011;-77
2021/01/10 06:07:45;;;;;;;55.90;29.60;;;-0.60;88.10;;;;;;5138629;27;20054;-78
2021/01/10 06:10:12;;;;;;;61.00;31.05;;;-0.60;87.90;;;;;;5126543;27;20023;-78
2021/01/10 06:12:42;;;;;;;55.83;28.92;;;-0.60;87.90;;;;;;5118033;28;20027;-77
2021/01/10 06:15:15;;;;;;;62.75;33.15;;;-0.60;88.00;;;;;;5117915;28;20048;-77
2021/01/10 06:17:45;;;;;;;70.88;35.08;;;-0.60;88.00;;;;;;5116489;28;20019;-77
2021/01/10 06:20:31;;;;;;;75.95;38.88;;;-0.60;88.00;;;;;;5116530;28;20034;-77
2021/01/10 06:23:02;;;;;;;72.35;37.35;;;-0.60;88.00;;;;;;5116372;28;20030;-77
2021/01/10 06:25:29;;;;;;;72.65;37.03;;;-0.60;88.10;;;;;;5117768;28;20020;-77
2021/01/10 06:28:10;;;;;;;65.65;32.25;;;-0.60;88.10;;;;;;5127166;27;20102;-77
2021/01/10 06:30:38;;;;;;;64.40;33.33;;;-0.60;88.20;;;;;;5138134;27;20376;-77
2021/01/10 06:33:12;;;;;;;57.08;30.42;;;-0.60;88.40;;;;;;5136830;27;20038;-77
2021/01/10 06:35:40;;;;;;;60.28;30.65;;;-0.60;88.50;;;;;;5138009;27;20399;-77
2021/01/10 06:38:08;;;;;;;61.17;32.78;;;-0.60;88.50;;;;;;5138143;27;20098;-77
2021/01/10 06:40:37;;;;;;;63.95;33.22;;;-0.60;88.50;;;;;;5136794;27;20027;-77
2021/01/10 06:43:04;;;;;;;61.35;31.67;;;-0.50;88.60;;;;;;5137816;27;20027;-77
2021/01/10 06:45:38;;;;;;;58.90;28.63;;;-0.50;88.60;;;;;;5136611;27;20019;-77
2021/01/10 06:48:04;;;;;;;57.35;28.60;;;-0.40;88.70;;;;;;5137719;27;20051;-77
2021/01/10 06:50:31;;;;;;;54.15;27.52;;;-0.30;88.50;;;;;;5137734;27;20114;-77
2021/01/10 06:53:10;;;;;;;53.97;27.90;;;-0.30;88.40;;;;;;5137640;27;20030;-77
2021/01/10 06:55:39;;;;;;;55.38;28.10;;;-0.20;88.30;;;;;;5137748;27;20015;-77
2021/01/10 06:58:09;;;;;;;57.00;29.88;;;-0.10;88.10;;;;;;5137770;27;20050;-77
2021/01/10 07:00:54;;;;;;;59.13;31.87;;;0.00;87.80;;;;;;5137621;27;20345;-77
2021/01/10 07:03:20;;;;;;;54.83;29.73;;;0.00;87.50;;;;;;5137594;27;20023;-77
2021/01/10 07:05:58;;;;;;;51.88;26.83;;;0.00;87.50;;;;;;5137483;27;20027;-77
2021/01/10 07:08:53;;;;;;;58.67;29.65;;;0.00;87.50;;;;;;5137313;27;20034;-77
2021/01/10 07:11:22;;;;;;;49.03;27.25;;;0.00;87.00;;;;;;5134347;27;20042;-77
2021/01/10 07:13:49;;;;;;;51.17;26.50;;;0.00;87.40;;;;;;5137320;27;20019;-77
2021/01/10 07:16:22;;;;;;;50.33;26.15;;;0.00;87.30;;;;;;5137606;27;20536;-77
2021/01/10 07:18:53;;;;;;;48.50;26.23;;;0.00;86.80;;;;;;5137356;27;20495;-77
2021/01/10 07:21:31;;;;;;;49.72;26.80;;;0.10;87.20;;;;;;5137267;27;20031;-77
2021/01/10 07:24:15;;;;;;;52.38;27.58;;;0.20;87.00;;;;;;5137554;27;20043;-77
2021/01/10 07:26:49;;;;;;;54.72;27.08;;;0.20;86.80;;;;;;5135707;27;20376;-78
2021/01/10 07:29:38;;;;;;;53.63;26.70;;;0.30;86.80;;;;;;5135372;27;20437;-78
2021/01/10 07:32:22;;;;;;;56.38;27.85;;;0.40;86.20;;;;;;5136960;27;20354;-77
2021/01/10 07:34:48;;;;;;;55.28;27.85;;;0.50;86.80;;;;;;5136990;27;20023;-78
2021/01/10 07:37:16;;;;;;;57.60;29.17;;;0.60;86.40;;;;;;5137087;27;20040;-78
2021/01/10 07:39:53;;;;;;;51.20;27.08;;;0.70;85.80;;;;;;5136710;27;20022;-78
2021/01/10 07:42:21;;;;;;;60.95;30.30;;;0.80;85.40;;;;;;5127621;27;20113;-79
2021/01/10 07:44:51;;;;;;;67.15;32.03;;;0.80;85.00;;;;;;5116219;28;20076;-78
2021/01/10 07:47:38;;;;;;;55.05;28.70;;;0.80;84.30;;;;;;5119531;27;20077;-78
2021/01/10 07:50:10;;;;;;;45.08;25.65;;;0.90;84.50;;;;;;5136856;27;20372;-78
2021/01/10 07:52:41;;;;;;;44.40;24.30;;;0.90;84.50;;;;;;5136871;27;20019;-78
2021/01/10 07:55:19;;;;;;;42.50;23.60;;;0.90;84.70;;;;;;5135506;27;20023;-78
2021/01/10 07:57:50;;;;;;;41.33;23.15;;;0.90;84.90;;;;;;5136515;27;20027;-78
2021/01/10 08:00:31;;;;;;;42.80;23.70;;;1.00;84.60;;;;;;5135379;27;20350;-79
2021/01/10 08:02:58;;;;;;;40.83;22.23;;;1.10;83.90;;;;;;5135123;27;20433;-79
2021/01/10 08:05:38;;;;;;;36.88;21.25;;;1.10;83.70;;;;;;5135310;27;20023;-79
2021/01/10 08:08:07;;;;;;;43.55;23.98;;;1.10;83.70;;;;;;5126321;27;20453;-79
2021/01/10 08:10:48;;;;;;;43.30;25.23;;;1.10;83.60;;;;;;5135654;27;20031;-78
2021/01/10 08:13:30;;;;;;;43.08;24.65;;;1.10;83.50;;;;;;5134625;27;20087;-81
2021/01/10 08:16:00;;;;;;;43.50;25.38;;;1.20;83.40;;;;;;5134670;27;20054;-79
2021/01/10 08:18:29;;;;;;;47.58;25.98;;;1.20;83.40;;;;;;5135893;27;20055;-80
2021/01/10 08:20:55;;;;;;;43.38;25.00;;;1.20;82.80;;;;;;5134224;27;20030;-80
2021/01/10 08:23:22;;;;;;;44.45;25.17;;;1.20;82.70;;;;;;5135441;27;20460;-79
2021/01/10 08:25:49;;;;;;;40.28;23.70;;;1.20;82.90;;;;;;5135613;27;20023;-80
2021/01/10 08:28:19;;;;;;;43.45;25.55;;;1.20;82.90;;;;;;5134543;27;20488;-80
2021/01/10 08:30:45;;;;;;;43.28;25.00;;;1.20;82.70;;;;;;5135693;27;20079;-79
2021/01/10 08:33:18;;;;;;;45.05;25.45;;;1.20;82.90;;;;;;5135640;27;20023;-79
2021/01/10 08:35:45;;;;;;;40.97;23.25;;;1.20;83.20;;;;;;5134241;27;20026;-80
2021/01/10 08:38:11;;;;;;;44.72;25.50;;;1.30;83.10;;;;;;5134165;27;20023;-80
2021/01/10 08:40:36;;;;;;;43.30;25.88;;;1.30;82.80;;;;;;5169005;27;20031;-80
2021/01/10 08:43:03;;;;;;;47.90;26.55;;;1.30;82.50;;;;;;5168019;27;20087;-79
2021/01/10 08:45:30;;;;;;;47.78;25.27;;;1.30;82.50;;;;;;5135087;27;20043;-79
2021/01/10 08:48:00;;;;;;;44.28;24.85;;;1.40;82.70;;;;;;5134447;27;20043;-82
2021/01/10 08:50:26;;;;;;;42.80;24.88;;;1.30;82.40;;;;;;5133145;27;20058;-84
2021/01/10 08:52:55;;;;;;;42.20;24.00;;;1.40;82.40;;;;;;5134194;27;20059;-82
2021/01/10 08:55:34;;;;;;;44.05;24.85;;;1.40;82.50;;;;;;5134819;27;20030;-82
2021/01/10 08:58:01;;;;;;;43.63;24.75;;;1.50;82.70;;;;;;5118947;27;20224;-83
2021/01/10 09:00:29;;;;;;;46.25;26.20;;;1.50;82.60;;;;;;5114032;28;20024;-80
2021/01/10 09:02:56;;;;;;;49.95;25.45;;;1.60;82.50;;;;;;5114003;28;20065;-81
2021/01/10 09:05:28;;;;;;;49.08;26.80;;;1.60;82.70;;;;;;5112565;28;20065;-81
2021/01/10 09:08:01;;;;;;;44.67;24.38;;;1.70;82.40;;;;;;5129996;27;20023;-82
2021/01/10 09:10:30;;;;;;;48.53;27.38;;;1.70;82.60;;;;;;5135034;27;20020;-82
2021/01/10 09:13:02;;;;;;;51.10;28.70;;;1.70;82.10;;;;;;5133431;27;20110;-83
2021/01/10 09:15:34;;;;;;;50.47;29.35;;;1.80;81.80;;;;;;5133815;27;20030;-82
2021/01/10 09:18:04;;;;;;;47.65;27.85;;;1.70;81.60;;;;;;5134880;27;20023;-82
2021/01/10 09:20:38;;;;;;;52.17;28.60;;;1.70;81.90;;;;;;5134977;27;20023;-82
2021/01/10 09:23:08;;;;;;;61.03;33.47;;;1.80;82.00;;;;;;5134577;27;20027;-83
2021/01/10 09:25:34;;;;;;;60.78;33.67;;;1.80;81.80;;;;;;5134669;27;20023;-83
2021/01/10 09:28:12;;;;;;;195.00;84.38;;;1.80;81.50;;;;;;5134794;27;20027;-82
2021/01/10 09:30:53;;;;;;;137.88;57.40;;;1.90;81.70;;;;;;5133826;27;20038;-81
2021/01/10 09:33:25;;;;;;;278.33;91.25;;;1.90;81.90;;;;;;5134553;27;20023;-81
2021/01/10 09:35:52;;;;;;;327.90;99.07;;;1.90;81.90;;;;;;5133781;27;20031;-82
2021/01/10 09:38:20;;;;;;;303.58;96.60;;;2.00;81.90;;;;;;5134670;27;20050;-82
2021/01/10 09:41:02;;;;;;;460.23;142.90;;;2.00;81.80;;;;;;5134775;27;20043;-82
2021/01/10 09:43:41;;;;;;;489.25;167.82;;;2.10;81.40;;;;;;5133451;28;20103;-82
2021/01/10 09:46:25;;;;;;;401.58;141.63;;;2.00;81.00;;;;;;5133363;28;20542;-82
2021/01/10 09:48:59;;;;;;;271.30;93.50;;;2.00;79.80;;;;;;5134506;28;20058;-82
2021/01/10 09:51:38;;;;;;;344.10;126.50;;;2.00;80.70;;;;;;5133416;28;20068;-82
2021/01/10 09:54:14;;;;;;;390.08;153.25;;;2.00;80.80;;;;;;5134625;27;20076;-83
2021/01/10 09:56:40;;;;;;;147.32;64.03;;;2.10;80.90;;;;;;5133175;28;20118;-83
2021/01/10 09:59:24;;;;;;;147.98;67.00;;;2.10;80.60;;;;;;5134474;28;20109;-83
2021/01/10 10:01:52;;;;;;;63.08;33.38;;;2.10;79.90;;;;;;5133149;28;20536;-83
2021/01/10 10:04:28;;;;;;;140.50;66.70;;;2.10;79.80;;;;;;5133279;28;20023;-83
2021/01/10 10:06:54;;;;;;;69.28;38.17;;;2.10;80.30;;;;;;5133211;28;20472;-83
2021/01/10 10:09:19;;;;;;;89.47;47.28;;;2.10;80.10;;;;;;5133278;28;20468;-84
2021/01/10 10:11:45;;;;;;;88.47;48.28;;;2.10;80.00;;;;;;5134278;27;20023;-82
2021/01/10 10:14:13;;;;;;;61.92;35.22;;;2.10;80.00;;;;;;5133207;28;20023;-84
2021/01/10 10:16:40;;;;;;;71.78;36.95;;;2.10;80.00;;;;;;5134721;27;20038;-84
2021/01/10 10:19:06;;;;;;;67.13;36.10;;;2.10;79.80;;;;;;5133131;28;20467;-83
2021/01/10 10:21:31;;;;;;;51.95;29.15;;;2.10;79.70;;;;;;5133086;28;20047;-83
2021/01/10 10:23:57;;;;;;;49.05;28.10;;;2.10;79.80;;;;;;5167535;27;20030;-83
2021/01/10 10:26:23;;;;;;;40.80;23.50;;;2.00;79.70;;;;;;5126593;28;20364;-83
2021/01/10 10:28:48;;;;;;;39.33;23.15;;;2.10;79.90;;;;;;5112786;28;20035;-83
2021/01/10 10:31:14;;;;;;;43.30;23.88;;;2.10;80.00;;;;;;5113599;28;20102;-83
2021/01/10 10:33:40;;;;;;;42.47;24.65;;;2.10;80.00;;;;;;5117171;28;20047;-83
2021/01/10 10:36:06;;;;;;;40.17;22.77;;;2.10;80.00;;;;;;5167764;27;20484;-82
2021/01/10 10:38:34;;;;;;;38.47;23.02;;;2.10;79.50;;;;;;5132955;28;20023;-83
2021/01/10 10:41:00;;;;;;;39.92;22.17;;;2.20;79.50;;;;;;5133072;28;20032;-80
2021/01/10 10:43:26;;;;;;;40.53;23.88;;;2.10;79.90;;;;;;5132784;28;20023;-87
2021/01/10 10:45:54;;;;;;;43.30;24.08;;;2.20;79.30;;;;;;5136620;27;20102;-82
2021/01/10 10:48:20;;;;;;;42.78;24.48;;;2.20;79.50;;;;;;5137687;27;20062;-82
2021/01/10 10:50:46;;;;;;;42.58;23.55;;;2.20;79.50;;;;;;5170907;27;20023;-82
2021/01/10 10:53:11;;;;;;;39.47;22.00;;;2.20;79.70;;;;;;5171011;27;20031;-82
2021/01/10 10:55:37;;;;;;;40.53;23.92;;;2.30;79.80;;;;;;5171140;27;20023;-83
2021/01/10 10:58:03;;;;;;;39.28;22.88;;;2.30;79.40;;;;;;5171208;27;20540;-82
2021/01/10 11:00:29;;;;;;;40.60;22.30;;;2.30;79.20;;;;;;5125641;27;20031;-84
2021/01/10 11:02:55;;;;;;;44.38;23.42;;;2.40;79.30;;;;;;5115717;28;20026;-83
2021/01/10 11:05:22;;;;;;;42.45;24.30;;;2.40;79.30;;;;;;5115676;28;20098;-83
2021/01/10 11:07:48;;;;;;;40.47;23.77;;;2.40;78.90;;;;;;5115570;28;20023;-82
2021/01/10 11:10:14;;;;;;;40.13;22.70;;;2.40;78.90;;;;;;5116947;28;20027;-83
2021/01/10 11:12:40;;;;;;;39.80;22.23;;;2.30;78.60;;;;;;5115520;28;20032;-82
2021/01/10 11:15:07;;;;;;;40.28;23.30;;;2.30;79.00;;;;;;5115517;28;20024;-92
2021/01/10 11:17:33;;;;;;;42.53;23.73;;;2.30;78.70;;;;;;5115358;28;20030;-83
2021/01/10 11:20:01;;;;;;;38.50;21.90;;;2.30;78.70;;;;;;5115340;28;20031;-89
2021/01/10 11:22:29;;;;;;;49.85;27.20;;;2.30;79.00;;;;;;5115718;28;20042;-83
2021/01/10 11:24:55;;;;;;;45.95;24.77;;;2.30;78.80;;;;;;5115333;28;20534;-83
2021/01/10 11:27:21;;;;;;;39.45;22.98;;;2.30;78.90;;;;;;5115091;28;20035;-83
2021/01/10 11:29:47;;;;;;;43.65;23.35;;;2.30;79.40;;;;;;5116309;28;20016;-83
2021/01/10 11:32:13;;;;;;;44.45;24.38;;;2.40;79.40;;;;;;5115332;28;20381;-83
2021/01/10 11:34:39;;;;;;;41.35;23.90;;;2.40;78.70;;;;;;5116411;28;20026;-83
2021/01/10 11:37:04;;;;;;;42.25;24.00;;;2.40;78.70;;;;;;5114967;28;20034;-83
2021/01/10 11:39:30;;;;;;;42.00;23.80;;;2.50;78.50;;;;;;5114833;28;20019;-84
2021/01/10 11:41:57;;;;;;;47.85;23.63;;;2.50;78.30;;;;;;5114963;28;20027;-84
2021/01/10 11:44:24;;;;;;;43.28;23.20;;;2.50;78.40;;;;;;5126389;27;20019;-83
2021/01/10 11:46:52;;;;;;;42.25;22.92;;;2.50;78.40;;;;;;5136820;27;20065;-84
2021/01/10 11:49:19;;;;;;;43.15;23.98;;;2.50;78.60;;;;;;5135367;27;20047;-83
2021/01/10 11:51:46;;;;;;;44.97;23.75;;;2.50;78.60;;;;;;5134794;27;20034;-84
2021/01/10 11:54:15;;;;;;;44.55;24.45;;;2.50;78.70;;;;;;5136321;27;20027;-83
2021/01/10 11:56:42;;;;;;;44.67;24.88;;;2.60;78.80;;;;;;5136306;27;20051;-84
2021/01/10 11:59:08;;;;;;;61.33;31.58;;;2.60;78.60;;;;;;5134874;27;20054;-82
2021/01/10 12:01:36;;;;;;;59.20;31.70;;;2.70;78.60;;;;;;5134941;27;20042;-83
2021/01/10 12:04:03;;;;;;;92.03;38.90;;;2.70;78.60;;;;;;5134694;27;20139;-83
2021/01/10 12:06:29;;;;;;;62.65;30.48;;;2.70;78.50;;;;;;5134759;27;20377;-83
2021/01/10 12:08:55;;;;;;;49.92;26.58;;;2.80;78.40;;;;;;5135773;27;20027;-83
2021/01/10 12:11:21;;;;;;;76.82;35.35;;;2.80;78.50;;;;;;5135038;27;20031;-85
2021/01/10 12:13:47;;;;;;;109.57;44.25;;;2.80;78.40;;;;;;5134863;27;20389;-86
2021/01/10 12:16:17;;;;;;;99.93;43.97;;;2.80;77.90;;;;;;5169546;27;20049;-84
2021/01/10 12:18:44;;;;;;;104.32;46.30;;;2.80;77.70;;;;;;5136104;27;20490;-82
2021/01/10 12:21:10;;;;;;;72.60;34.60;;;2.70;77.90;;;;;;5134449;27;20027;-86
2021/01/10 12:23:37;;;;;;;71.53;35.03;;;2.80;78.30;;;;;;5134894;27;20030;-87
2021/01/10 12:26:13;;;;;;;66.68;31.80;;;2.70;78.00;;;;;;5134900;27;20461;-82
2021/01/10 12:28:40;;;;;;;50.85;26.80;;;2.70;77.90;;;;;;5135467;27;20038;-83
2021/01/10 12:31:06;;;;;;;76.35;35.35;;;2.70;78.10;;;;;;5135159;27;20023;-83
2021/01/10 12:33:33;;;;;;;77.82;36.42;;;2.70;77.70;;;;;;5135260;27;20031;-82
2021/01/10 12:36:00;;;;;;;75.85;36.72;;;2.70;77.90;;;;;;5134203;27;20023;-82
2021/01/10 12:38:26;;;;;;;63.78;33.33;;;2.60;78.50;;;;;;5133920;27;20024;-82
2021/01/10 12:40:52;;;;;;;76.22;38.05;;;2.60;78.60;;;;;;5168960;27;20113;-82